This is the latest recevied weather packets stored in our database for station/object KE9DBJ-13. If no packets are shown the sender has not sent any weather packets the latest 10 day(s).
| Time | Temp. | Humidity | Pressure | Rain* | Wind** | Luminosity | Snow |
|---|---|---|---|---|---|---|---|
| 1777983602 | 15.56° C | 96% | 1008.7 hPa | 0 mm | - | - | - |
| 1777983003 | 15° C | 97% | 1008.8 hPa | 0 mm | - | - | - |
| 1777982403 | 14.44° C | 98% | 1008.7 hPa | 0 mm | - | - | - |
| 1777981803 | 14.44° C | 98% | 1008.6 hPa | 0 mm | - | - | - |
| 1777981203 | 13.89° C | 99% | 1008.4 hPa | 0 mm | - | - | - |
| 1777980603 | 13.89° C | 99% | 1008.5 hPa | 0 mm | - | - | - |
| 1777980003 | 13.89° C | 99% | 1008.6 hPa | 0 mm | - | - | - |
| 1777979402 | 13.89° C | 99% | 1008.6 hPa | 0 mm | - | - | - |
| 1777978802 | 13.89° C | 99% | 1008.4 hPa | 0 mm | - | - | - |
| 1777978202 | 13.89° C | 98% | 1008.6 hPa | 0 mm | - | - | - |
| 1777977602 | 13.89° C | 97% | 1008.7 hPa | 0 mm | - | - | - |
| 1777977002 | 13.89° C | 97% | 1008.9 hPa | 0.76 mm | - | - | - |
| 1777976402 | 14.44° C | 97% | 1009.1 hPa | 3.05 mm | - | - | - |
| 1777975802 | 14.44° C | 96% | 1009.4 hPa | 3.81 mm | - | - | - |
| 1777975202 | 14.44° C | 95% | 1009.5 hPa | 2.79 mm | - | - | - |
| 1777974602 | 15° C | 93% | 1009.6 hPa | 2.03 mm | - | - | - |
| 1777974003 | 15.56° C | 90% | 1009.3 hPa | 3.3 mm | - | - | - |
| 1777973403 | 16.11° C | 83% | 1009.1 hPa | 3.3 mm | - | - | - |
| 1777972803 | 17.22° C | 75% | 1009 hPa | 1.02 mm | - | - | - |
| 1777972203 | 18.33° C | 61% | 1007.9 hPa | 0 mm | - | - | - |
| 1777971603 | 17.78° C | 64% | 1006.9 hPa | 0 mm | - | - | - |
| 1777971003 | 17.78° C | 64% | 1006.6 hPa | 0 mm | - | - | - |
| 1777970402 | 17.22° C | 64% | 1006.4 hPa | 0 mm | - | - | - |
| 1777969802 | 17.22° C | 64% | 1006.1 hPa | 0 mm | - | - | - |
| 1777969202 | 16.67° C | 67% | 1006.1 hPa | 0 mm | - | - | - |
* Rain latest hour (hover to see other rain measurements)
** Current wind speed in m/s (hover to see current wind gust speed)